createdAt,value
2022-12-01T00:02:17.634Z,30.00
2022-12-01T00:04:45.136Z,32.00
2022-12-01T00:07:13.837Z,32.00
2022-12-01T00:10:13.306Z,30.00
2022-12-01T00:12:43.432Z,30.25
2022-12-01T00:15:11.370Z,30.25
2022-12-01T00:17:38.787Z,30.25
2022-12-01T00:20:09.109Z,31.75
2022-12-01T00:22:37.831Z,32.25
2022-12-01T00:25:05.641Z,33.25
2022-12-01T00:27:33.071Z,31.00
2022-12-01T00:30:00.487Z,29.00
2022-12-01T00:32:27.904Z,30.00
2022-12-01T00:34:55.311Z,30.50
2022-12-01T00:37:22.720Z,32.00
2022-12-01T00:39:51.608Z,30.00
2022-12-01T00:42:20.764Z,31.25
2022-12-01T00:44:48.217Z,30.50
2022-12-01T00:47:15.720Z,30.75
2022-12-01T00:49:45.357Z,31.00
2022-12-01T00:52:12.927Z,27.25
2022-12-01T00:54:40.477Z,29.75
2022-12-01T00:57:09.178Z,31.50
2022-12-01T00:59:36.651Z,32.00
2022-12-01T01:02:04.214Z,27.75
2022-12-01T01:04:31.814Z,29.50
2022-12-01T01:06:59.222Z,29.00
2022-12-01T01:09:26.851Z,29.25
2022-12-01T01:11:54.263Z,31.50
2022-12-01T01:14:23.014Z,28.00
2022-12-01T01:16:50.742Z,29.25
2022-12-01T01:19:18.244Z,29.75
2022-12-01T01:21:45.699Z,28.25
2022-12-01T01:24:13.112Z,29.25
2022-12-01T01:26:40.517Z,31.25
2022-12-01T01:29:07.976Z,30.00
2022-12-01T01:31:36.858Z,31.00
2022-12-01T01:34:04.796Z,28.75
2022-12-01T01:36:32.210Z,30.75
2022-12-01T01:38:59.613Z,28.00
2022-12-01T01:41:27.024Z,27.00
2022-12-01T01:43:55.762Z,28.75
2022-12-01T01:46:24.660Z,30.25
2022-12-01T01:48:54.803Z,30.25
2022-12-01T01:51:23.990Z,26.50
2022-12-01T01:53:51.877Z,26.00
2022-12-01T01:56:19.288Z,27.50
2022-12-01T01:58:46.698Z,27.75
2022-12-01T02:01:14.145Z,30.75
2022-12-01T02:03:41.597Z,31.75
2022-12-01T02:06:10.528Z,30.00
2022-12-01T02:08:38.223Z,30.25
2022-12-01T02:11:13.052Z,28.75
2022-12-01T02:13:43.155Z,30.25
2022-12-01T02:16:13.706Z,30.50
2022-12-01T02:18:47.040Z,32.25
2022-12-01T02:21:24.767Z,25.25
2022-12-01T02:24:21.379Z,30.00
2022-12-01T02:26:51.027Z,29.50
2022-12-01T02:29:36.101Z,28.75
2022-12-01T02:32:08.719Z,28.25
2022-12-01T02:34:38.790Z,30.00
2022-12-01T02:37:07.354Z,26.50
2022-12-01T02:39:35.869Z,30.25
2022-12-01T02:42:05.573Z,29.75
2022-12-01T02:44:35.193Z,29.50
2022-12-01T02:47:03.777Z,28.25
2022-12-01T02:49:35.552Z,25.75
2022-12-01T02:52:03.419Z,28.50
2022-12-01T02:54:30.977Z,30.25
2022-12-01T02:56:58.405Z,24.50
2022-12-01T02:59:25.885Z,30.25
2022-12-01T03:02:01.940Z,30.25
2022-12-01T03:04:42.175Z,28.50
2022-12-01T03:07:13.831Z,30.50
2022-12-01T03:09:45.904Z,30.25
2022-12-01T03:12:16.300Z,29.25
2022-12-01T03:14:46.017Z,29.25
2022-12-01T03:17:15.709Z,26.50
2022-12-01T03:19:45.057Z,30.00
2022-12-01T03:22:13.530Z,32.25
2022-12-01T03:24:41.739Z,30.00
2022-12-01T03:27:09.753Z,31.25
2022-12-01T03:29:39.831Z,29.75
2022-12-01T03:32:09.216Z,30.25
2022-12-01T03:34:38.156Z,25.75
2022-12-01T03:37:08.953Z,25.75
2022-12-01T03:39:36.864Z,27.50
2022-12-01T03:42:06.373Z,26.00
2022-12-01T03:44:35.125Z,27.00
2022-12-01T03:47:02.898Z,28.50
2022-12-01T03:49:30.304Z,29.25
2022-12-01T03:52:03.186Z,24.50
2022-12-01T03:54:35.714Z,26.00
2022-12-01T03:57:04.989Z,25.25
2022-12-01T03:59:32.397Z,27.75
2022-12-01T04:01:59.907Z,25.50
2022-12-01T04:04:27.386Z,25.00
2022-12-01T04:06:54.787Z,23.75
2022-12-01T04:09:22.196Z,25.50
2022-12-01T04:12:08.589Z,23.50
2022-12-01T04:14:36.024Z,26.25
2022-12-01T04:17:03.433Z,25.75
2022-12-01T04:19:30.844Z,26.00
2022-12-01T04:21:59.462Z,24.00
2022-12-01T04:24:26.864Z,23.00
2022-12-01T04:26:55.543Z,25.25
2022-12-01T04:29:23.282Z,22.00
2022-12-01T04:31:50.762Z,21.00
2022-12-01T04:34:18.240Z,22.00
2022-12-01T04:36:45.693Z,26.25
2022-12-01T04:39:13.108Z,22.25
2022-12-01T04:41:40.545Z,22.75
2022-12-01T04:44:10.185Z,22.25
2022-12-01T04:46:37.660Z,23.25
2022-12-01T04:49:05.190Z,23.75
2022-12-01T04:51:32.636Z,25.50
2022-12-01T04:54:00.046Z,22.50
2022-12-01T04:56:27.471Z,21.50
2022-12-01T04:58:54.910Z,22.00
2022-12-01T05:01:23.676Z,18.50
2022-12-01T05:03:51.117Z,21.50
2022-12-01T05:06:19.816Z,18.75
2022-12-01T05:08:47.331Z,22.00
2022-12-01T05:11:16.101Z,20.75
2022-12-01T05:13:44.337Z,25.00
2022-12-01T05:16:13.162Z,18.25
2022-12-01T05:18:42.043Z,23.75
2022-12-01T05:21:09.749Z,19.75
2022-12-01T05:23:37.804Z,21.50
2022-12-01T05:26:06.040Z,21.25
2022-12-01T05:28:33.508Z,20.00
2022-12-01T05:31:01.091Z,19.50
2022-12-01T05:33:28.974Z,19.25
2022-12-01T05:35:57.813Z,21.75
2022-12-01T05:38:25.211Z,19.25
2022-12-01T05:40:53.227Z,21.50
2022-12-01T05:43:25.261Z,20.50
2022-12-01T05:45:56.225Z,19.00
2022-12-01T05:48:23.703Z,18.00
2022-12-01T05:50:51.125Z,20.00
2022-12-01T05:53:19.837Z,15.50
2022-12-01T05:55:47.255Z,16.75
2022-12-01T05:58:14.684Z,22.00
2022-12-01T06:00:45.949Z,20.50
2022-12-01T06:03:13.709Z,19.25
2022-12-01T06:05:41.241Z,21.25
2022-12-01T06:08:08.783Z,19.00
2022-12-01T06:10:37.493Z,21.00
2022-12-01T06:13:04.906Z,19.00
2022-12-01T06:15:32.311Z,14.25
2022-12-01T06:17:59.801Z,20.00
2022-12-01T06:20:27.345Z,20.00
2022-12-01T06:22:54.812Z,18.75
2022-12-01T06:25:22.239Z,19.00
2022-12-01T06:27:50.941Z,17.00
2022-12-01T06:30:18.449Z,19.00
2022-12-01T06:32:45.863Z,18.25
2022-12-01T06:35:13.272Z,18.00
2022-12-01T06:37:40.695Z,17.50
2022-12-01T06:40:09.019Z,18.25
2022-12-01T06:42:36.475Z,17.75
2022-12-01T06:45:05.785Z,16.75
2022-12-01T06:47:33.261Z,17.00
2022-12-01T06:50:00.953Z,16.50
2022-12-01T06:52:28.652Z,15.50
2022-12-01T06:54:56.057Z,12.50
2022-12-01T06:57:23.676Z,17.00
2022-12-01T06:59:51.722Z,15.25
2022-12-01T07:02:21.972Z,17.75
2022-12-01T07:04:49.405Z,18.25
2022-12-01T07:07:21.286Z,16.25
2022-12-01T07:09:48.944Z,14.75
2022-12-01T07:12:19.232Z,15.00
2022-12-01T07:14:46.654Z,15.00
2022-12-01T07:17:14.082Z,18.75
2022-12-01T07:19:42.797Z,19.75
2022-12-01T07:22:10.236Z,16.50
2022-12-01T07:24:37.622Z,16.25
2022-12-01T07:27:05.027Z,16.50
2022-12-01T07:29:32.448Z,16.25
2022-12-01T07:31:59.843Z,18.00
2022-12-01T07:34:27.244Z,15.50
2022-12-01T07:36:55.951Z,16.00
2022-12-01T07:39:23.606Z,14.25
2022-12-01T07:41:51.033Z,16.25
2022-12-01T07:44:18.519Z,16.00
2022-12-01T07:46:46.022Z,15.50
2022-12-01T07:49:15.402Z,15.00
2022-12-01T07:51:42.811Z,16.75
2022-12-01T07:54:14.132Z,14.75
2022-12-01T07:56:41.686Z,17.00
2022-12-01T07:59:09.327Z,16.25
2022-12-01T08:01:39.274Z,14.25
2022-12-01T08:04:10.428Z,16.25
2022-12-01T08:06:37.871Z,18.25
2022-12-01T08:09:05.288Z,15.00
2022-12-01T08:11:34.029Z,17.75
2022-12-01T08:14:01.463Z,16.50
2022-12-01T08:16:28.921Z,17.00
2022-12-01T08:18:56.348Z,15.00
2022-12-01T08:21:24.394Z,16.25
2022-12-01T08:23:53.983Z,6.25
2022-12-01T08:26:21.520Z,14.25
2022-12-01T08:28:50.442Z,14.75
2022-12-01T08:31:18.899Z,18.00
2022-12-01T08:33:46.475Z,17.50
2022-12-01T08:36:13.917Z,14.50
2022-12-01T08:38:43.794Z,19.25
2022-12-01T08:41:11.499Z,15.25
2022-12-01T08:46:29.169Z,14.00
2022-12-01T08:48:57.518Z,14.75
2022-12-01T08:51:25.331Z,17.50
2022-12-01T08:53:52.933Z,17.75
2022-12-01T08:56:22.297Z,16.00
2022-12-01T08:58:50.285Z,18.25
2022-12-01T09:01:18.004Z,18.75
2022-12-01T09:03:46.823Z,16.50
2022-12-01T09:06:15.221Z,19.25
2022-12-01T09:08:42.771Z,16.25
2022-12-01T09:11:12.355Z,17.75
2022-12-01T09:13:40.415Z,22.25
2022-12-01T09:16:09.067Z,22.00
2022-12-01T09:18:36.547Z,22.75
2022-12-01T09:21:12.089Z,17.75
2022-12-01T09:23:39.596Z,22.50
2022-12-01T09:26:10.838Z,15.50
2022-12-01T09:28:43.559Z,25.00
2022-12-01T09:31:12.155Z,23.75
2022-12-01T09:33:39.691Z,23.75
2022-12-01T09:36:08.131Z,24.25
2022-12-01T09:38:37.189Z,24.25
2022-12-01T09:41:06.674Z,20.25
2022-12-01T09:43:40.486Z,25.75
2022-12-01T09:46:09.395Z,25.00
2022-12-01T09:48:42.512Z,25.50
2022-12-01T09:51:13.214Z,22.25
2022-12-01T09:53:42.135Z,23.75
2022-12-01T09:56:17.597Z,27.25
2022-12-01T09:58:45.003Z,25.75
2022-12-01T10:01:12.802Z,27.25
2022-12-01T10:03:45.531Z,25.50
2022-12-01T10:06:27.326Z,26.50
2022-12-01T10:09:08.310Z,24.25
2022-12-01T10:11:36.854Z,28.75
2022-12-01T10:14:04.679Z,31.00
2022-12-01T10:16:34.368Z,30.50
2022-12-01T10:19:05.835Z,22.25
2022-12-01T10:21:41.681Z,31.25
2022-12-01T10:24:24.937Z,29.75
2022-12-01T10:26:54.722Z,29.75
2022-12-01T10:29:28.365Z,28.75
2022-12-01T10:31:58.011Z,30.00
2022-12-01T10:34:26.753Z,28.75
2022-12-01T10:36:55.277Z,24.00
2022-12-01T10:39:28.100Z,27.50
2022-12-01T10:41:56.870Z,28.25
2022-12-01T10:44:24.297Z,29.00
2022-12-01T10:46:53.534Z,30.75
2022-12-01T10:49:21.069Z,26.50
2022-12-01T10:51:54.498Z,30.25
2022-12-01T10:54:23.809Z,29.50
2022-12-01T10:56:55.820Z,30.50
2022-12-01T10:59:28.778Z,29.50
2022-12-01T11:01:56.333Z,24.00
2022-12-01T11:04:34.320Z,28.75
2022-12-01T11:07:01.786Z,26.75
2022-12-01T11:09:30.955Z,25.50
2022-12-01T11:11:58.934Z,28.50
2022-12-01T11:14:29.218Z,25.50
2022-12-01T11:16:56.780Z,22.50
2022-12-01T11:19:29.745Z,28.00
2022-12-01T11:21:58.214Z,29.25
2022-12-01T11:24:41.816Z,27.00
2022-12-01T11:27:15.854Z,27.75
2022-12-01T11:29:43.281Z,24.00
2022-12-01T11:32:17.445Z,26.00
2022-12-01T11:34:49.466Z,26.50
2022-12-01T11:37:18.302Z,27.25
2022-12-01T11:39:47.689Z,28.75
2022-12-01T11:42:21.295Z,25.75
2022-12-01T11:44:51.700Z,25.25
2022-12-01T11:47:24.552Z,28.25
2022-12-01T11:49:54.748Z,29.00
2022-12-01T11:52:27.167Z,25.00
2022-12-01T11:55:21.685Z,29.50
2022-12-01T11:57:52.762Z,17.75
2022-12-01T12:00:21.508Z,25.25
2022-12-01T12:02:58.496Z,25.50
2022-12-01T12:05:38.823Z,24.25
2022-12-01T12:08:09.796Z,28.00
2022-12-01T12:10:42.814Z,24.00
2022-12-01T12:13:26.199Z,22.75
2022-12-01T12:15:58.075Z,24.75
2022-12-01T12:18:38.557Z,27.75
2022-12-01T12:21:10.809Z,25.00
2022-12-01T12:23:48.701Z,24.75
2022-12-01T12:26:20.329Z,23.00
2022-12-01T12:28:56.122Z,19.25
2022-12-01T12:31:28.606Z,22.50
2022-12-01T12:34:04.676Z,26.25
2022-12-01T12:36:38.508Z,21.50
2022-12-01T12:39:16.555Z,22.75
2022-12-01T12:41:46.497Z,22.25
2022-12-01T12:44:25.162Z,21.25
2022-12-01T12:46:57.862Z,23.50
2022-12-01T12:49:31.122Z,20.50
2022-12-01T12:52:06.529Z,23.00
2022-12-01T12:54:37.123Z,22.75
2022-12-01T12:57:07.048Z,20.25
2022-12-01T12:59:37.380Z,16.25
2022-12-01T13:02:10.588Z,21.50
2022-12-01T13:04:40.558Z,23.00
2022-12-01T13:07:21.467Z,21.50
2022-12-01T13:09:50.879Z,21.25
2022-12-01T13:12:27.195Z,21.75
2022-12-01T13:15:00.817Z,20.00
2022-12-01T13:17:29.467Z,15.25
2022-12-01T13:19:56.928Z,22.00
2022-12-01T13:22:25.715Z,18.75
2022-12-01T13:24:53.229Z,16.50
2022-12-01T13:27:23.558Z,18.25
2022-12-01T13:29:53.115Z,16.25
2022-12-01T13:32:30.037Z,20.00
2022-12-01T13:34:57.449Z,22.00
2022-12-01T13:37:28.520Z,17.75
2022-12-01T13:39:56.266Z,19.25
2022-12-01T13:42:25.561Z,19.75
2022-12-01T13:44:55.734Z,18.25
2022-12-01T13:47:40.484Z,19.75
2022-12-01T13:50:40.017Z,18.50
2022-12-01T13:53:12.057Z,17.00
2022-12-01T13:55:55.904Z,19.75
2022-12-01T13:58:43.989Z,19.50
2022-12-01T14:01:42.338Z,21.25
2022-12-01T14:04:24.060Z,18.50
2022-12-01T14:06:52.375Z,20.00
2022-12-01T14:09:22.219Z,20.50
2022-12-01T14:11:55.654Z,18.00
2022-12-01T14:14:26.388Z,18.25
2022-12-01T14:16:55.368Z,21.25
2022-12-01T14:19:28.923Z,20.50
2022-12-01T14:21:57.630Z,22.50
2022-12-01T14:24:27.736Z,19.00
2022-12-01T14:26:55.147Z,21.00
2022-12-01T14:29:27.465Z,18.25
2022-12-01T14:32:06.331Z,19.75
2022-12-01T14:34:34.714Z,17.00
2022-12-01T14:37:06.029Z,15.50
2022-12-01T14:39:34.854Z,19.50
2022-12-01T14:42:02.740Z,19.75
2022-12-01T14:44:31.410Z,23.50
2022-12-01T14:47:00.793Z,17.50
2022-12-01T14:49:30.345Z,19.00
2022-12-01T14:51:59.382Z,19.50
2022-12-01T14:54:28.404Z,20.50
2022-12-01T14:57:19.875Z,20.75
2022-12-01T14:59:47.267Z,19.50
2022-12-01T15:02:14.719Z,20.25
2022-12-01T15:05:06.815Z,19.75
2022-12-01T15:07:37.695Z,19.00
2022-12-01T15:10:06.441Z,21.00
2022-12-01T15:12:35.174Z,21.75
2022-12-01T15:15:02.664Z,19.25
2022-12-01T15:17:31.587Z,19.00
2022-12-01T15:19:59.191Z,22.75
2022-12-01T15:22:29.716Z,18.75
2022-12-01T15:25:05.785Z,21.50
2022-12-01T15:27:34.775Z,21.00
2022-12-01T15:30:04.414Z,19.00
2022-12-01T15:32:32.418Z,20.75
2022-12-01T15:35:01.866Z,19.75
2022-12-01T15:37:29.649Z,21.50
2022-12-01T15:40:43.088Z,15.75
2022-12-01T15:43:00.666Z,23.00
2022-12-01T15:45:28.105Z,24.00
2022-12-01T15:47:56.242Z,22.25
2022-12-01T15:50:29.523Z,22.00
2022-12-01T15:52:57.360Z,21.75
2022-12-01T15:55:28.443Z,23.25
2022-12-01T15:57:57.136Z,16.00
2022-12-01T16:00:24.682Z,23.50
2022-12-01T16:02:52.577Z,23.50
2022-12-01T16:05:21.397Z,22.75
2022-12-01T16:10:37.317Z,21.75
2022-12-01T16:13:37.691Z,22.25
2022-12-01T16:16:20.490Z,23.25
2022-12-01T16:18:53.393Z,26.00
2022-12-01T16:21:20.780Z,17.50
2022-12-01T16:23:48.231Z,26.00
2022-12-01T16:26:15.674Z,23.25
2022-12-01T16:28:44.359Z,20.00
2022-12-01T16:31:18.875Z,20.25
2022-12-01T16:33:46.502Z,22.25
2022-12-01T16:36:14.768Z,22.50
2022-12-01T16:38:42.531Z,24.25
2022-12-01T16:41:16.250Z,20.25
2022-12-01T16:43:59.433Z,20.75
2022-12-01T16:46:32.600Z,21.50
2022-12-01T16:49:00.044Z,18.25
2022-12-01T16:51:35.606Z,20.75
2022-12-01T16:54:10.066Z,21.75
2022-12-01T16:56:37.464Z,19.50
2022-12-01T16:59:06.134Z,19.50
2022-12-01T17:01:33.588Z,20.25
2022-12-01T17:04:06.039Z,23.00
2022-12-01T17:06:34.882Z,22.25
2022-12-01T17:09:02.294Z,21.00
2022-12-01T17:11:29.679Z,21.50
2022-12-01T17:13:57.106Z,22.75
2022-12-01T17:16:25.858Z,21.25
2022-12-01T17:18:53.300Z,24.00
2022-12-01T17:21:20.727Z,20.25
2022-12-01T17:23:48.132Z,21.00
2022-12-01T17:26:17.415Z,19.75
2022-12-01T17:28:44.808Z,22.50
2022-12-01T17:31:12.407Z,22.00
2022-12-01T17:33:41.393Z,18.50
2022-12-01T17:36:11.062Z,23.50
2022-12-01T17:38:39.171Z,20.00
2022-12-01T17:41:08.152Z,21.75
2022-12-01T17:43:36.104Z,7.75
2022-12-01T17:46:03.991Z,18.50
2022-12-01T17:48:31.780Z,22.00
2022-12-01T17:51:00.911Z,19.00
2022-12-01T17:53:28.388Z,21.50
2022-12-01T17:55:55.808Z,23.50
2022-12-01T17:58:23.363Z,19.25
2022-12-01T18:00:50.790Z,21.50
2022-12-01T18:03:18.388Z,18.00
2022-12-01T18:05:45.840Z,20.75
2022-12-01T18:08:14.541Z,20.75
2022-12-01T18:10:42.887Z,21.00
2022-12-01T18:13:10.799Z,19.25
2022-12-01T18:15:39.699Z,19.75
2022-12-01T18:18:07.145Z,19.00
2022-12-01T18:20:34.553Z,19.50
2022-12-01T18:23:01.962Z,21.00
2022-12-01T18:25:30.691Z,21.00
2022-12-01T18:27:58.785Z,21.50
2022-12-01T18:30:26.204Z,23.00
2022-12-01T18:32:53.664Z,22.25
2022-12-01T18:35:21.080Z,22.75
2022-12-01T18:37:48.487Z,23.50
2022-12-01T18:40:16.029Z,24.00
2022-12-01T18:42:44.791Z,20.25
2022-12-01T18:45:16.599Z,22.75
2022-12-01T18:47:48.121Z,23.75
2022-12-01T18:50:16.012Z,19.25
2022-12-01T18:52:43.418Z,23.25
2022-12-01T18:55:10.863Z,23.50
2022-12-01T18:57:38.255Z,4.50
2022-12-01T19:00:08.446Z,20.00
2022-12-01T19:02:35.946Z,22.75
2022-12-01T19:05:03.434Z,21.00
2022-12-01T19:07:30.883Z,16.75
2022-12-01T19:09:58.710Z,20.75
2022-12-01T19:12:26.241Z,17.75
2022-12-01T19:14:54.201Z,24.75
2022-12-01T19:17:23.495Z,15.25
2022-12-01T19:19:50.935Z,23.25
2022-12-01T19:22:18.848Z,20.25
2022-12-01T19:24:50.155Z,22.75
2022-12-01T19:27:18.025Z,22.75
2022-12-01T19:29:45.475Z,20.50
2022-12-01T19:32:13.762Z,20.50
2022-12-01T19:34:42.496Z,19.00
2022-12-01T19:37:10.849Z,20.25
2022-12-01T19:39:38.531Z,19.25
2022-12-01T19:42:06.118Z,22.25
2022-12-01T19:44:33.534Z,23.00
2022-12-01T19:47:00.980Z,22.00
2022-12-01T19:49:28.389Z,23.75
2022-12-01T19:51:57.106Z,19.25
2022-12-01T19:54:24.899Z,21.50
2022-12-01T19:56:52.299Z,17.25
2022-12-01T19:59:19.718Z,22.00
2022-12-01T20:01:47.194Z,19.75
2022-12-01T20:04:14.656Z,20.00
2022-12-01T20:06:42.078Z,22.25
2022-12-01T20:09:10.868Z,18.25
2022-12-01T20:11:38.345Z,18.50
2022-12-01T20:14:07.345Z,18.00
2022-12-01T20:16:34.879Z,20.50
2022-12-01T20:19:02.715Z,18.50
2022-12-01T20:21:31.164Z,17.00
2022-12-01T20:23:59.426Z,19.75
2022-12-01T20:26:31.107Z,21.50
2022-12-01T20:29:00.126Z,21.25
2022-12-01T20:31:28.306Z,19.00
2022-12-01T20:33:56.980Z,20.50
2022-12-01T20:36:26.861Z,20.75
2022-12-01T20:38:54.350Z,23.25
2022-12-01T20:41:21.828Z,22.00
2022-12-01T20:43:50.549Z,19.00
2022-12-01T20:46:18.201Z,21.50
2022-12-01T20:48:45.645Z,19.25
2022-12-01T20:51:14.166Z,17.00
2022-12-01T20:53:54.406Z,18.00
2022-12-01T20:56:29.188Z,20.25
2022-12-01T20:58:57.885Z,23.00
2022-12-01T21:01:25.384Z,20.50
2022-12-01T21:03:53.202Z,17.00
2022-12-01T21:06:21.093Z,17.50
2022-12-01T21:08:49.191Z,16.00
2022-12-01T21:11:19.345Z,18.75
2022-12-01T21:13:46.164Z,20.25
2022-12-01T21:16:21.280Z,21.50
2022-12-01T21:18:51.186Z,20.00
2022-12-01T21:21:24.142Z,20.25
2022-12-01T21:23:55.911Z,19.00
2022-12-01T21:26:23.304Z,23.50
2022-12-01T21:28:50.712Z,20.50
2022-12-01T21:31:19.470Z,21.25
2022-12-01T21:33:46.906Z,20.50
2022-12-01T21:36:15.536Z,21.75
2022-12-01T21:38:43.068Z,7.25
2022-12-01T21:41:15.694Z,20.50
2022-12-01T21:43:43.109Z,22.50
2022-12-01T21:46:13.445Z,19.50
2022-12-01T21:48:42.194Z,16.25
2022-12-01T21:51:13.623Z,21.25
2022-12-01T21:53:41.058Z,19.25
2022-12-01T21:56:10.916Z,19.75
2022-12-01T21:58:38.340Z,17.25
2022-12-01T22:01:15.152Z,19.75
2022-12-01T22:03:45.885Z,22.00
2022-12-01T22:06:31.303Z,20.00
2022-12-01T22:09:00.581Z,19.50
2022-12-01T22:11:28.516Z,19.00
2022-12-01T22:14:00.056Z,21.75
2022-12-01T22:16:29.928Z,21.75
2022-12-01T22:18:59.423Z,20.25
2022-12-01T22:21:30.906Z,19.50
2022-12-01T22:24:02.050Z,19.00
2022-12-01T22:26:32.663Z,18.50
2022-12-01T22:29:00.085Z,17.75
2022-12-01T22:31:27.579Z,21.25
2022-12-01T22:34:01.541Z,18.00
2022-12-01T22:36:33.226Z,21.50
2022-12-01T22:39:00.656Z,22.00
2022-12-01T22:41:28.560Z,17.50
2022-12-01T22:43:57.057Z,18.25
2022-12-01T22:46:26.217Z,17.75
2022-12-01T22:48:55.045Z,15.00
2022-12-01T22:51:44.339Z,20.00
2022-12-01T22:54:28.598Z,17.50
2022-12-01T22:57:16.158Z,18.00
2022-12-01T22:59:44.142Z,18.75
2022-12-01T23:02:21.279Z,16.25
2022-12-01T23:04:49.568Z,20.75
2022-12-01T23:07:31.141Z,21.75
2022-12-01T23:10:04.824Z,18.00
2022-12-01T23:12:32.926Z,19.75
2022-12-01T23:15:01.458Z,19.75
2022-12-01T23:17:29.818Z,17.75
2022-12-01T23:20:39.031Z,16.50
2022-12-01T23:23:09.686Z,14.25
2022-12-01T23:25:38.459Z,19.50
2022-12-01T23:28:07.465Z,17.25
2022-12-01T23:30:35.277Z,18.00
2022-12-01T23:33:17.535Z,19.75
2022-12-01T23:35:47.342Z,18.25
2022-12-01T23:38:16.665Z,19.75
2022-12-01T23:40:45.380Z,17.50
2022-12-01T23:43:17.136Z,18.25
2022-12-01T23:45:44.764Z,17.00
2022-12-01T23:48:15.826Z,16.25
2022-12-01T23:50:43.221Z,16.50
2022-12-01T23:53:18.885Z,18.50
2022-12-01T23:55:47.587Z,18.00
2022-12-01T23:58:14.993Z,18.25
